Time;durP1;ratioP1;P1;durP2;ratioP2;P2;SDS_P1;SDS_P2;PMS_P1;PMS_P2;Temp;Humidity;BMP_temperature;BMP_pressure;BME280_temperature;BME280_humidity;BME280_pressure;Samples;Min_cycle;Max_cycle;Signal;HPM_P1;HPM_P2
2022/01/03 00:01:17;;;;;;;36.60;27.08;;;;;;;2.86;100.00;96611.78;6179180;22;20016;-64
2022/01/03 00:03:43;;;;;;;35.63;27.60;;;;;;;2.85;100.00;96619.63;6178553;23;20009;-63
2022/01/03 00:06:08;;;;;;;39.20;28.35;;;;;;;3.00;100.00;96607.69;6178717;23;20095;-63
2022/01/03 00:08:34;;;;;;;31.48;24.55;;;;;;;2.99;100.00;96603.41;6178244;23;20033;-63
2022/01/03 00:11:00;;;;;;;31.45;25.30;;;;;;;2.99;100.00;96604.25;6178497;23;20297;-63
2022/01/03 00:13:25;;;;;;;33.95;25.83;;;;;;;2.94;100.00;96592.34;6178644;23;20344;-64
2022/01/03 00:15:52;;;;;;;37.10;27.85;;;;;;;2.91;100.00;96595.09;6178404;23;20341;-64
2022/01/03 00:18:19;;;;;;;49.92;31.42;;;;;;;3.24;100.00;96594.44;6178755;23;20092;-64
2022/01/03 00:20:57;;;;;;;42.97;31.42;;;;;;;3.05;100.00;96578.84;6178756;23;19997;-64
2022/01/03 00:23:29;;;;;;;39.83;27.08;;;;;;;2.97;100.00;96592.22;6178405;23;20012;-64
2022/01/03 00:26:02;;;;;;;38.08;28.63;;;;;;;2.84;100.00;96592.81;6178275;23;20001;-63
2022/01/03 00:28:32;;;;;;;43.08;27.88;;;;;;;2.83;100.00;96593.72;6178671;23;20080;-64
2022/01/03 00:30:58;;;;;;;48.33;28.17;;;;;;;2.86;100.00;96585.78;6178433;23;20005;-63
2022/01/03 00:33:26;;;;;;;45.00;29.73;;;;;;;2.90;100.00;96591.69;6152278;23;20012;-64
2022/01/03 00:35:54;;;;;;;42.63;27.70;;;;;;;2.94;100.00;96601.03;6178668;23;20175;-63
2022/01/03 00:38:21;;;;;;;39.10;27.05;;;;;;;2.94;100.00;96593.22;6178367;23;20001;-64
2022/01/03 00:40:47;;;;;;;36.50;25.63;;;;;;;2.93;100.00;96617.53;6178738;23;20005;-64
2022/01/03 00:43:15;;;;;;;31.48;21.92;;;;;;;2.99;100.00;96630.25;6178348;23;20012;-63
2022/01/03 00:45:40;;;;;;;33.55;23.33;;;;;;;3.01;100.00;96632.81;6178394;23;20001;-64
2022/01/03 00:48:07;;;;;;;28.73;20.25;;;;;;;2.89;100.00;96638.56;6177791;23;20005;-64
2022/01/03 00:50:33;;;;;;;21.40;17.25;;;;;;;2.84;100.00;96616.22;6178540;23;20066;-64
2022/01/03 00:52:58;;;;;;;23.73;17.98;;;;;;;2.86;100.00;96613.53;6178177;23;20005;-64
2022/01/03 00:55:24;;;;;;;23.40;17.00;;;;;;;2.90;100.00;96598.63;6178415;23;20326;-64
2022/01/03 00:58:02;;;;;;;30.25;21.35;;;;;;;2.92;100.00;96579.44;6178179;23;20040;-64
2022/01/03 01:00:31;;;;;;;24.75;20.25;;;;;;;2.96;100.00;96577.53;6178454;23;20001;-64
2022/01/03 01:03:12;;;;;;;29.27;19.95;;;;;;;3.01;100.00;96567.75;6178319;23;20001;-63
2022/01/03 01:05:47;;;;;;;27.20;20.58;;;;;;;2.96;100.00;96562.75;6177961;23;20009;-64
2022/01/03 01:08:17;;;;;;;26.73;20.67;;;;;;;2.93;100.00;96554.25;6152061;23;20106;-64
2022/01/03 01:10:44;;;;;;;27.95;19.33;;;;;;;2.93;100.00;96557.72;6177948;23;20017;-64
2022/01/03 01:13:13;;;;;;;31.30;22.65;;;;;;;2.99;100.00;96559.19;6178716;23;20002;-64
2022/01/03 01:15:40;;;;;;;28.15;20.38;;;;;;;2.95;100.00;96561.09;6178247;23;20080;-63
2022/01/03 01:18:06;;;;;;;25.80;19.40;;;;;;;2.97;100.00;96561.00;6178120;23;20028;-63
2022/01/03 01:20:34;;;;;;;22.83;18.38;;;;;;;2.96;100.00;96567.13;6178777;23;20032;-64
2022/01/03 01:23:01;;;;;;;23.27;18.80;;;;;;;2.89;100.00;96552.72;6178158;23;20088;-64
2022/01/03 01:27:46;;;;;;;24.77;18.20;;;;;;;2.89;100.00;96542.31;6177953;23;20425;-63
2022/01/03 01:28:15;;;;;;;21.85;17.23;;;;;;;2.85;100.00;96515.59;6177991;22;20005;-63
2022/01/03 01:30:41;;;;;;;22.38;18.70;;;;;;;2.83;100.00;96513.09;6178527;23;20009;-63
2022/01/03 01:33:11;;;;;;;30.33;20.80;;;;;;;2.83;100.00;96517.44;6177989;23;20493;-63
2022/01/03 01:35:48;;;;;;;37.10;25.20;;;;;;;2.83;100.00;96515.69;6179440;23;20376;-64
2022/01/03 01:38:22;;;;;;;36.60;23.23;;;;;;;2.88;100.00;96507.69;6177756;23;20009;-63
2022/01/03 01:40:50;;;;;;;25.35;19.90;;;;;;;2.89;100.00;96504.16;6177821;23;20017;-64
2022/01/03 01:43:20;;;;;;;26.27;20.20;;;;;;;2.88;100.00;96512.88;6179204;23;20084;-63
2022/01/03 01:45:48;;;;;;;31.70;22.30;;;;;;;2.84;100.00;96522.56;6179487;23;20518;-64
2022/01/03 01:48:16;;;;;;;28.50;21.98;;;;;;;2.91;100.00;96517.94;6179625;22;20377;-64
2022/01/03 01:50:41;;;;;;;30.27;21.13;;;;;;;2.89;100.00;96524.97;6179780;23;20322;-63
2022/01/03 01:53:08;;;;;;;28.40;20.55;;;;;;;2.93;100.00;96538.66;6179444;23;20012;-63
2022/01/03 01:55:39;;;;;;;26.77;19.05;;;;;;;2.91;100.00;96556.94;6179580;23;20005;-63
2022/01/03 01:58:04;;;;;;;28.08;18.75;;;;;;;2.87;100.00;96555.38;6179344;23;20001;-64
2022/01/03 02:00:32;;;;;;;22.88;17.02;;;;;;;2.88;100.00;96535.44;6179554;23;20005;-64
2022/01/03 02:02:57;;;;;;;21.35;16.65;;;;;;;2.78;100.00;96524.63;6179431;23;20040;-63
2022/01/03 02:05:44;;;;;;;20.83;16.05;;;;;;;2.79;100.00;96519.38;6179457;23;20021;-64
2022/01/03 02:08:18;;;;;;;21.63;15.77;;;;;;;2.84;100.00;96512.19;6179387;23;20002;-63
2022/01/03 02:11:19;;;;;;;24.40;16.27;;;;;;;2.88;100.00;96509.41;6179289;23;20456;-64
2022/01/03 02:13:46;;;;;;;20.85;15.15;;;;;;;2.91;100.00;96504.94;6179452;23;20058;-63
2022/01/03 02:16:12;;;;;;;21.85;17.10;;;;;;;2.86;100.00;96502.53;6179400;23;20009;-63
2022/01/03 02:18:37;;;;;;;18.15;15.52;;;;;;;2.90;100.00;96504.97;6179291;23;20005;-63
2022/01/03 02:21:03;;;;;;;18.33;14.38;;;;;;;3.04;100.00;96505.16;6179433;23;20054;-63
2022/01/03 02:23:29;;;;;;;20.42;14.98;;;;;;;3.05;100.00;96506.00;6179297;23;20001;-64
2022/01/03 02:25:54;;;;;;;18.40;14.63;;;;;;;3.00;100.00;96509.66;6179515;23;20068;-63
2022/01/03 02:28:23;;;;;;;17.00;15.18;;;;;;;3.00;100.00;96514.03;6179082;23;20441;-64
2022/01/03 02:30:51;;;;;;;19.85;15.55;;;;;;;2.98;100.00;96508.91;6179034;23;20009;-64
2022/01/03 02:33:16;;;;;;;22.13;16.63;;;;;;;3.00;100.00;96488.03;6179313;23;20016;-63
2022/01/03 02:35:43;;;;;;;22.50;15.88;;;;;;;3.00;100.00;96480.22;6179697;23;20005;-64
2022/01/03 02:38:09;;;;;;;21.33;15.25;;;;;;;3.02;100.00;96486.19;6179230;23;19997;-64
2022/01/03 02:40:36;;;;;;;21.48;16.77;;;;;;;3.02;100.00;96496.59;6179088;23;20019;-64
2022/01/03 02:43:02;;;;;;;21.52;14.85;;;;;;;2.99;100.00;96494.97;6179304;23;20001;-64
2022/01/03 02:45:28;;;;;;;19.23;14.95;;;;;;;2.96;100.00;96505.53;6178640;23;20009;-63
2022/01/03 02:47:59;;;;;;;17.70;14.43;;;;;;;2.90;100.00;96520.59;6179167;23;20004;-63
2022/01/03 02:50:26;;;;;;;17.70;15.43;;;;;;;2.82;100.00;96521.81;6179187;23;20011;-63
2022/01/03 02:52:52;;;;;;;19.30;15.88;;;;;;;2.79;100.00;96523.72;6179248;23;20046;-63
2022/01/03 02:55:18;;;;;;;20.27;15.02;;;;;;;2.77;100.00;96536.81;6179068;23;20080;-63
2022/01/03 02:57:50;;;;;;;21.88;16.30;;;;;;;2.76;100.00;96524.69;6179177;23;20076;-63
2022/01/03 03:00:19;;;;;;;17.63;15.27;;;;;;;2.75;100.00;96501.38;6179362;23;20402;-63
2022/01/03 03:02:45;;;;;;;16.50;14.77;;;;;;;2.75;100.00;96494.41;6179178;23;20084;-63
2022/01/03 03:05:12;;;;;;;20.08;15.30;;;;;;;2.71;100.00;96496.31;6179068;23;20435;-63
2022/01/03 03:07:38;;;;;;;27.00;19.08;;;;;;;2.67;100.00;96491.34;6179141;23;20005;-63
2022/01/03 03:10:12;;;;;;;18.23;16.25;;;;;;;2.61;100.00;96481.22;6178922;23;20124;-63
2022/01/03 03:12:38;;;;;;;20.85;16.25;;;;;;;2.73;100.00;96475.44;6179167;23;20001;-63
2022/01/03 03:15:06;;;;;;;18.90;15.18;;;;;;;2.60;100.00;96492.56;6178925;23;20081;-64
2022/01/03 03:17:31;;;;;;;17.60;15.63;;;;;;;2.48;100.00;96502.59;6179076;23;20426;-64
2022/01/03 03:19:59;;;;;;;17.02;15.00;;;;;;;2.50;100.00;96505.97;6179270;23;20025;-64
2022/01/03 03:22:27;;;;;;;18.65;15.98;;;;;;;2.54;100.00;96510.13;6178991;23;20044;-64
2022/01/03 03:25:00;;;;;;;18.02;15.27;;;;;;;2.57;100.00;96511.72;6178945;23;20001;-63
2022/01/03 03:27:25;;;;;;;18.02;15.80;;;;;;;2.52;100.00;96519.72;6178528;23;20009;-63
2022/01/03 03:29:51;;;;;;;20.23;17.00;;;;;;;2.71;100.00;96518.88;6179021;23;20455;-64
2022/01/03 03:32:19;;;;;;;20.45;16.83;;;;;;;2.70;100.00;96501.59;6179242;23;20001;-64
2022/01/03 03:34:46;;;;;;;27.50;19.25;;;;;;;2.74;100.00;96500.50;6179547;23;20047;-63
2022/01/03 03:37:12;;;;;;;21.70;18.02;;;;;;;2.65;100.00;96495.78;6179361;23;20049;-64
2022/01/03 03:39:39;;;;;;;22.23;16.13;;;;;;;2.57;100.00;96496.13;6179482;23;20008;-64
2022/01/03 03:42:06;;;;;;;24.92;16.33;;;;;;;2.52;100.00;96485.94;6179545;23;20009;-64
2022/01/03 03:44:31;;;;;;;20.92;17.05;;;;;;;2.50;100.00;96489.53;6179252;23;20055;-64
2022/01/03 03:46:56;;;;;;;23.90;18.10;;;;;;;2.47;100.00;96480.13;6179178;23;20004;-64
2022/01/03 03:49:22;;;;;;;26.63;18.13;;;;;;;2.41;100.00;96464.81;6179011;23;20005;-64
2022/01/03 03:51:47;;;;;;;21.48;16.83;;;;;;;2.40;100.00;96463.13;6179200;23;20028;-64
2022/01/03 03:54:13;;;;;;;22.77;17.52;;;;;;;2.40;100.00;96465.75;6152795;23;20023;-64
2022/01/03 03:56:38;;;;;;;25.70;17.23;;;;;;;2.40;100.00;96471.75;6178933;23;20009;-64
2022/01/03 03:59:03;;;;;;;22.27;17.33;;;;;;;2.46;100.00;96462.00;6178321;23;20001;-63
2022/01/03 04:01:29;;;;;;;20.35;16.58;;;;;;;2.41;100.00;96459.63;6178865;23;20009;-64
2022/01/03 04:03:54;;;;;;;22.48;15.82;;;;;;;2.39;100.00;96461.47;6179195;23;20005;-63
2022/01/03 04:06:19;;;;;;;19.63;16.05;;;;;;;2.38;100.00;96464.97;6178980;23;20013;-64
2022/01/03 04:08:46;;;;;;;20.42;15.90;;;;;;;2.36;100.00;96472.00;6179024;23;20031;-64
2022/01/03 04:11:13;;;;;;;19.55;15.05;;;;;;;2.71;100.00;96472.06;6178938;23;20070;-64
2022/01/03 04:13:39;;;;;;;21.70;15.73;;;;;;;2.97;100.00;96463.00;6179219;23;20001;-63
2022/01/03 04:16:05;;;;;;;20.38;15.18;;;;;;;2.76;100.00;96474.44;6179111;23;20001;-64
2022/01/03 04:18:31;;;;;;;21.60;16.60;;;;;;;2.58;100.00;96464.88;6178853;23;20002;-62
2022/01/03 04:20:57;;;;;;;20.65;18.15;;;;;;;2.48;100.00;96461.00;6178993;23;20008;-64
2022/01/03 04:23:22;;;;;;;21.70;18.33;;;;;;;2.42;100.00;96464.72;6178835;23;20005;-64
2022/01/03 04:25:47;;;;;;;21.60;17.50;;;;;;;2.45;100.00;96463.75;6179144;23;20025;-64
2022/01/03 04:28:13;;;;;;;22.98;16.98;;;;;;;2.45;100.00;96457.72;6179049;23;20005;-64
2022/01/03 04:30:38;;;;;;;20.30;16.42;;;;;;;2.41;100.00;96437.06;6178969;23;20005;-64
2022/01/03 04:33:04;;;;;;;17.45;13.60;;;;;;;2.46;100.00;96436.84;6178838;23;20028;-64
2022/01/03 04:35:29;;;;;;;19.05;14.70;;;;;;;2.41;100.00;96433.63;6178773;23;20001;-64
2022/01/03 04:37:54;;;;;;;16.85;14.00;;;;;;;2.39;100.00;96436.28;6178904;23;20414;-64
2022/01/03 04:40:20;;;;;;;19.75;17.48;;;;;;;2.40;100.00;96416.38;6178852;23;20005;-64
2022/01/03 04:42:45;;;;;;;16.73;14.18;;;;;;;2.60;100.00;96397.19;6178927;23;20060;-64
2022/01/03 04:45:10;;;;;;;17.98;14.57;;;;;;;2.46;100.00;96390.06;6178742;23;20044;-64
2022/01/03 04:47:36;;;;;;;19.35;13.50;;;;;;;2.42;100.00;96373.75;6178670;23;20386;-64
2022/01/03 04:50:02;;;;;;;17.70;14.45;;;;;;;2.40;100.00;96364.38;6178789;23;20005;-64
2022/01/03 04:52:28;;;;;;;15.63;13.98;;;;;;;2.45;100.00;96384.97;6178670;23;20080;-64
2022/01/03 04:54:53;;;;;;;19.90;15.10;;;;;;;2.52;100.00;96399.31;6178652;23;20082;-65
2022/01/03 04:57:18;;;;;;;17.58;14.95;;;;;;;2.76;100.00;96418.06;6178558;23;20008;-64
2022/01/03 04:59:45;;;;;;;17.95;14.80;;;;;;;2.66;100.00;96432.44;6178793;23;20020;-64
2022/01/03 05:02:11;;;;;;;18.48;15.02;;;;;;;2.61;100.00;96455.22;6178671;23;20004;-64
2022/01/03 05:04:36;;;;;;;19.20;15.77;;;;;;;2.59;100.00;96444.91;6178586;23;20001;-64
2022/01/03 05:07:02;;;;;;;19.65;15.30;;;;;;;2.63;100.00;96437.81;6178473;23;20512;-64
2022/01/03 05:09:27;;;;;;;16.35;14.07;;;;;;;2.61;100.00;96437.03;6179266;23;20005;-64
2022/01/03 05:11:52;;;;;;;20.88;15.63;;;;;;;2.56;100.00;96417.31;6179380;23;20013;-64
2022/01/03 05:14:18;;;;;;;16.42;14.82;;;;;;;2.54;100.00;96415.69;6180092;23;20433;-64
2022/01/03 05:16:43;;;;;;;16.08;14.20;;;;;;;2.53;100.00;96416.59;6179997;23;20029;-64
2022/01/03 05:19:09;;;;;;;16.00;14.35;;;;;;;2.50;100.00;96396.78;6180070;23;20001;-64
2022/01/03 05:21:34;;;;;;;21.73;14.82;;;;;;;2.59;100.00;96379.91;6179222;23;20080;-64
2022/01/03 05:23:59;;;;;;;15.55;13.38;;;;;;;2.60;100.00;96388.56;6179949;23;20349;-64
2022/01/03 05:26:25;;;;;;;16.02;13.10;;;;;;;2.47;100.00;96402.13;6179295;23;20075;-64
2022/01/03 05:28:50;;;;;;;16.23;14.02;;;;;;;2.40;100.00;96401.59;6180054;23;20012;-64
2022/01/03 05:31:16;;;;;;;14.85;13.07;;;;;;;2.35;100.00;96426.97;6179754;23;20016;-64
2022/01/03 05:33:42;;;;;;;13.70;12.25;;;;;;;2.30;100.00;96439.34;6179846;23;20005;-65
2022/01/03 05:36:08;;;;;;;14.77;13.13;;;;;;;2.23;100.00;96443.16;6179734;23;20447;-64
2022/01/03 05:38:34;;;;;;;14.27;12.85;;;;;;;2.18;100.00;96447.69;6179918;23;20009;-64
2022/01/03 05:40:59;;;;;;;17.77;12.90;;;;;;;2.33;100.00;96447.00;6179993;23;20114;-65
2022/01/03 05:43:24;;;;;;;20.77;14.13;;;;;;;2.61;100.00;96460.44;6179792;23;20349;-65
2022/01/03 05:45:50;;;;;;;15.73;12.27;;;;;;;2.40;100.00;96445.78;6179924;23;20014;-64
2022/01/03 05:48:15;;;;;;;19.88;14.70;;;;;;;2.34;100.00;96422.69;6179663;23;20002;-64
2022/01/03 05:50:40;;;;;;;19.58;14.35;;;;;;;2.27;100.00;96400.50;6179510;23;20387;-64
2022/01/03 05:53:06;;;;;;;17.02;13.82;;;;;;;2.21;100.00;96396.44;6179862;23;20005;-64
2022/01/03 05:55:31;;;;;;;17.80;14.05;;;;;;;2.11;100.00;96405.59;6179874;23;20005;-65
2022/01/03 05:57:57;;;;;;;17.88;14.15;;;;;;;2.09;100.00;96420.41;6179778;23;20336;-65
2022/01/03 06:00:24;;;;;;;18.60;16.20;;;;;;;2.10;100.00;96425.53;6179583;23;20009;-64
2022/01/03 06:02:54;;;;;;;15.65;14.13;;;;;;;2.08;100.00;96426.50;6180091;23;20048;-65
2022/01/03 06:05:33;;;;;;;16.42;14.13;;;;;;;1.97;100.00;96433.06;6179782;23;20013;-64
2022/01/03 06:07:58;;;;;;;23.08;15.80;;;;;;;1.88;100.00;96436.09;6179825;23;20005;-64
2022/01/03 06:10:24;;;;;;;18.65;16.73;;;;;;;1.87;100.00;96426.56;6179550;23;20009;-64
2022/01/03 06:12:49;;;;;;;19.65;16.45;;;;;;;1.93;100.00;96435.84;6179866;23;20398;-64
2022/01/03 06:15:15;;;;;;;20.50;15.38;;;;;;;2.50;100.00;96433.19;6179649;23;20381;-65
2022/01/03 06:17:42;;;;;;;27.95;19.83;;;;;;;2.44;100.00;96423.09;6179734;23;20080;-64
2022/01/03 06:20:08;;;;;;;24.90;18.73;;;;;;;2.34;100.00;96435.69;6178108;23;20048;-64
2022/01/03 06:22:34;;;;;;;23.83;17.25;;;;;;;2.27;100.00;96429.09;6178021;23;20058;-64
2022/01/03 06:24:59;;;;;;;27.48;19.30;;;;;;;2.18;100.00;96421.72;6179456;23;20005;-64
2022/01/03 06:27:24;;;;;;;31.70;22.20;;;;;;;2.15;100.00;96427.91;6179579;23;20005;-64
2022/01/03 06:29:50;;;;;;;26.48;22.02;;;;;;;2.03;100.00;96450.13;6179654;23;20425;-64
2022/01/03 06:32:15;;;;;;;30.35;22.15;;;;;;;1.94;100.00;96450.53;6178971;23;20004;-64
2022/01/03 06:34:41;;;;;;;30.13;20.60;;;;;;;1.90;100.00;96449.84;6179548;23;20028;-64
2022/01/03 06:37:06;;;;;;;27.75;20.63;;;;;;;1.86;100.00;96443.06;6179508;23;19997;-64
2022/01/03 06:39:31;;;;;;;24.55;20.00;;;;;;;1.81;100.00;96408.69;6179582;23;20026;-64
2022/01/03 06:41:57;;;;;;;27.52;20.17;;;;;;;1.72;100.00;96404.75;6179695;23;20008;-64
2022/01/03 06:44:22;;;;;;;24.08;18.75;;;;;;;1.67;100.00;96417.13;6177717;23;20131;-64
2022/01/03 06:46:48;;;;;;;22.20;17.90;;;;;;;1.63;100.00;96431.16;6178489;23;20001;-65
2022/01/03 06:49:15;;;;;;;23.23;19.25;;;;;;;1.65;100.00;96448.31;6177149;23;20348;-63
2022/01/03 06:51:41;;;;;;;32.75;20.65;;;;;;;1.73;100.00;96447.97;6178609;22;20020;-66
2022/01/03 06:54:12;;;;;;;27.63;19.13;;;;;;;1.79;100.00;96449.47;6179540;22;20001;-65
2022/01/03 06:56:38;;;;;;;31.63;23.83;;;;;;;1.70;100.00;96428.22;6178135;23;20080;-65
2022/01/03 06:59:04;;;;;;;24.13;19.38;;;;;;;1.68;100.00;96427.44;6179363;23;20005;-67
2022/01/03 07:01:30;;;;;;;17.38;12.95;;;;;;;1.69;100.00;96425.66;6179637;23;20084;-66
2022/01/03 07:03:55;;;;;;;17.83;13.40;;;;;;;1.68;100.00;96430.03;6152115;23;20552;-63
2022/01/03 07:06:20;;;;;;;19.90;16.17;;;;;;;1.73;100.00;96436.78;6178208;23;20480;-62
2022/01/03 07:08:46;;;;;;;19.15;15.88;;;;;;;1.82;100.00;96445.00;6178845;23;20050;-62
2022/01/03 07:11:11;;;;;;;22.90;15.70;;;;;;;1.91;100.00;96429.88;6178230;23;20016;-63
2022/01/03 07:13:47;;;;;;;21.83;16.67;;;;;;;1.86;100.00;96437.88;6178951;23;20033;-65
2022/01/03 07:18:56;;;;;;;18.67;16.38;;;;;;;1.79;100.00;96444.28;6179025;23;20077;-63
2022/01/03 07:21:26;;;;;;;19.25;14.57;;;;;;;1.80;100.00;96449.41;6178830;23;20001;-63
2022/01/03 07:23:52;;;;;;;21.73;16.42;;;;;;;1.84;100.00;96450.09;6153002;23;20005;-65
2022/01/03 07:26:17;;;;;;;20.50;15.73;;;;;;;1.90;100.00;96443.78;6179072;23;20005;-65
2022/01/03 07:28:43;;;;;;;20.85;17.48;;;;;;;1.85;100.00;96436.19;6179236;23;20037;-64
2022/01/03 07:31:08;;;;;;;21.92;15.48;;;;;;;1.84;100.00;96426.72;6179329;23;20084;-65
2022/01/03 07:33:34;;;;;;;21.42;18.15;;;;;;;1.85;100.00;96413.69;6179055;23;20001;-66
2022/01/03 07:35:59;;;;;;;23.73;18.52;;;;;;;1.90;100.00;96421.28;6179478;23;20353;-62
2022/01/03 07:38:24;;;;;;;21.35;18.10;;;;;;;2.00;100.00;96425.13;6177217;23;20013;-61
2022/01/03 07:40:50;;;;;;;23.40;19.23;;;;;;;2.11;100.00;96427.22;6177814;23;20464;-61
2022/01/03 07:43:15;;;;;;;27.60;19.23;;;;;;;2.22;100.00;96431.91;6178350;23;20008;-61
2022/01/03 07:45:41;;;;;;;23.80;19.10;;;;;;;2.26;100.00;96443.00;6178799;23;20009;-61
2022/01/03 07:48:06;;;;;;;33.38;25.85;;;;;;;2.25;100.00;96434.34;6178451;23;20050;-61
2022/01/03 07:50:31;;;;;;;33.95;26.67;;;;;;;2.35;100.00;96442.56;6177902;23;20040;-61
2022/01/03 07:52:59;;;;;;;28.05;24.35;;;;;;;2.42;100.00;96440.50;6177714;23;20001;-61
2022/01/03 07:55:26;;;;;;;28.38;22.60;;;;;;;2.94;100.00;96441.47;6178744;23;20519;-61
2022/01/03 07:57:51;;;;;;;33.38;24.88;;;;;;;3.11;100.00;96441.47;6178594;23;20387;-61
2022/01/03 08:00:17;;;;;;;25.30;18.33;;;;;;;3.10;100.00;96439.81;6178204;22;20029;-61
2022/01/03 08:02:43;;;;;;;22.83;18.63;;;;;;;2.95;100.00;96431.00;6178073;23;20005;-61
2022/01/03 08:05:12;;;;;;;28.52;21.20;;;;;;;2.86;100.00;96424.50;6177972;23;20033;-61
2022/01/03 08:07:38;;;;;;;30.73;23.73;;;;;;;2.86;100.00;96444.47;6178770;23;20084;-61
2022/01/03 08:10:05;;;;;;;25.90;21.63;;;;;;;2.84;100.00;96446.28;6177689;23;20521;-62
2022/01/03 08:12:31;;;;;;;27.15;19.20;;;;;;;2.87;100.00;96456.53;6151680;23;20009;-61
2022/01/03 08:14:57;;;;;;;28.45;20.48;;;;;;;3.05;100.00;96462.63;6178381;23;20034;-62
2022/01/03 08:17:22;;;;;;;27.05;20.23;;;;;;;2.99;100.00;96447.31;6152159;23;20005;-62
2022/01/03 08:19:47;;;;;;;28.20;21.02;;;;;;;2.98;100.00;96428.25;6178384;23;20001;-62
2022/01/03 08:22:13;;;;;;;21.52;18.45;;;;;;;3.05;100.00;96444.41;6178092;23;20005;-62
2022/01/03 08:24:38;;;;;;;24.27;19.42;;;;;;;3.20;100.00;96436.72;6152213;23;20009;-61
2022/01/03 08:27:04;;;;;;;18.08;15.48;;;;;;;3.18;100.00;96438.56;6177923;23;20001;-61
2022/01/03 08:29:29;;;;;;;22.58;17.05;;;;;;;3.21;100.00;96446.25;6178160;23;20001;-60
2022/01/03 08:31:54;;;;;;;26.42;19.40;;;;;;;3.22;100.00;96456.56;6150967;23;20441;-61
2022/01/03 08:34:20;;;;;;;27.65;21.38;;;;;;;3.28;100.00;96447.59;6177963;23;20040;-60
2022/01/03 08:36:45;;;;;;;23.08;18.33;;;;;;;3.34;100.00;96447.28;6178209;23;20029;-59
2022/01/03 08:39:11;;;;;;;29.25;19.70;;;;;;;3.38;100.00;96453.19;6177806;23;20005;-60
2022/01/03 08:41:36;;;;;;;24.45;19.60;;;;;;;3.44;100.00;96469.34;6177741;23;20092;-61
2022/01/03 08:44:02;;;;;;;32.22;23.52;;;;;;;3.52;100.00;96471.50;6177520;23;20001;-62
2022/01/03 08:46:28;;;;;;;25.73;19.50;;;;;;;3.55;100.00;96473.13;6178456;23;20088;-61
2022/01/03 08:48:54;;;;;;;23.92;17.33;;;;;;;3.58;100.00;96467.75;6178749;23;20081;-61
2022/01/03 08:51:20;;;;;;;24.83;20.42;;;;;;;3.65;100.00;96461.34;6179120;23;20009;-66
2022/01/03 08:53:46;;;;;;;29.75;22.48;;;;;;;3.70;100.00;96461.91;6179061;23;20345;-61
2022/01/03 08:56:12;;;;;;;26.55;20.60;;;;;;;3.80;100.00;96469.25;6178740;23;20008;-61
2022/01/03 08:58:37;;;;;;;24.50;18.27;;;;;;;3.90;100.00;96457.44;6178710;23;20142;-62
2022/01/03 09:01:03;;;;;;;77.65;49.03;;;;;;;4.05;100.00;96449.69;6178828;23;20012;-64
2022/01/03 09:03:28;;;;;;;34.28;24.30;;;;;;;4.14;100.00;96442.22;6177797;23;20382;-65
2022/01/03 09:05:54;;;;;;;33.50;19.80;;;;;;;4.26;100.00;96438.09;6178780;23;20498;-63
2022/01/03 09:08:22;;;;;;;48.58;34.13;;;;;;;4.32;100.00;96436.09;6179308;23;20060;-64
2022/01/03 09:10:49;;;;;;;25.10;18.92;;;;;;;4.44;100.00;96427.56;6178240;23;20063;-65
2022/01/03 09:13:14;;;;;;;22.75;16.63;;;;;;;4.52;100.00;96422.75;6178571;23;20002;-62
2022/01/03 09:15:44;;;;;;;22.35;17.83;;;;;;;4.58;100.00;96422.44;6178903;23;20028;-66
2022/01/03 09:18:10;;;;;;;23.23;15.32;;;;;;;4.66;99.95;96413.31;6178800;23;20107;-65
2022/01/03 09:20:36;;;;;;;20.60;17.38;;;;;;;4.75;99.97;96414.56;6178678;23;20058;-68
2022/01/03 09:23:09;;;;;;;20.77;18.33;;;;;;;4.80;99.82;96421.22;6177350;23;20384;-65
2022/01/03 09:30:44;;;;;;;22.45;17.58;;;;;;;5.26;96.12;96419.44;6178534;23;20069;-65
2022/01/03 09:33:10;;;;;;;23.17;17.67;;;;;;;5.47;93.82;96424.31;6178407;23;20008;-64
2022/01/03 09:35:35;;;;;;;23.92;18.25;;;;;;;5.21;94.58;96429.34;6178293;23;20460;-64
2022/01/03 09:38:01;;;;;;;33.30;21.27;;;;;;;5.28;95.25;96431.47;6178190;23;20001;-64
2022/01/03 09:40:26;;;;;;;21.95;17.50;;;;;;;5.30;95.85;96429.63;6178567;23;20001;-64
2022/01/03 09:42:59;;;;;;;21.48;16.08;;;;;;;5.35;95.55;96428.50;6178500;23;20448;-64
2022/01/03 09:45:32;;;;;;;21.90;16.77;;;;;;;5.43;95.98;96419.28;6177904;23;20005;-65
2022/01/03 09:47:59;;;;;;;19.83;17.65;;;;;;;5.51;95.88;96413.56;6177652;23;20008;-64
2022/01/03 09:50:25;;;;;;;23.30;17.65;;;;;;;5.56;95.96;96413.31;6178050;23;20009;-64
2022/01/03 09:52:51;;;;;;;26.52;19.38;;;;;;;5.65;95.32;96406.69;6179294;23;20076;-64
2022/01/03 09:55:19;;;;;;;24.67;18.10;;;;;;;5.76;94.75;96411.25;6178403;23;20020;-65
2022/01/03 09:57:46;;;;;;;28.40;19.05;;;;;;;5.82;94.60;96409.09;6178347;23;20006;-65
2022/01/03 10:00:22;;;;;;;23.05;18.23;;;;;;;5.85;95.19;96408.91;6177005;22;20013;-65
2022/01/03 10:02:52;;;;;;;24.45;18.98;;;;;;;5.97;94.46;96424.78;6151615;23;20009;-65
2022/01/03 10:05:18;;;;;;;24.00;19.92;;;;;;;6.04;93.50;96435.69;6178360;23;20001;-66
2022/01/03 10:07:44;;;;;;;21.30;14.73;;;;;;;6.01;93.84;96440.19;6178286;23;20078;-65
2022/01/03 10:10:11;;;;;;;15.50;13.55;;;;;;;6.15;92.52;96443.72;6177201;23;20005;-65
2022/01/03 10:12:37;;;;;;;14.57;13.07;;;;;;;6.39;90.60;96450.97;6178296;23;20006;-65
2022/01/03 10:15:05;;;;;;;18.20;15.20;;;;;;;6.68;90.74;96456.09;6178523;23;20012;-64
2022/01/03 10:17:38;;;;;;;15.95;14.32;;;;;;;6.94;89.50;96453.56;6179033;23;20080;-65
2022/01/03 10:20:05;;;;;;;18.05;14.50;;;;;;;7.02;86.71;96446.88;6178572;23;20136;-65
2022/01/03 10:22:34;;;;;;;18.88;15.40;;;;;;;7.05;85.18;96440.63;6178709;23;20345;-65
2022/01/03 10:25:08;;;;;;;17.95;15.20;;;;;;;7.16;87.24;96440.72;6177475;23;20009;-64
2022/01/03 10:27:57;;;;;;;17.30;13.52;;;;;;;7.30;84.64;96434.59;6178042;23;20012;-64
2022/01/03 10:30:38;;;;;;;16.63;14.07;;;;;;;7.42;83.38;96427.69;6178055;23;20005;-64
2022/01/03 10:33:06;;;;;;;13.35;12.07;;;;;;;7.69;83.38;96431.13;6177183;23;20080;-64
2022/01/03 10:35:38;;;;;;;14.30;10.88;;;;;;;7.88;82.04;96412.34;6178010;23;20318;-64
2022/01/03 10:38:03;;;;;;;16.08;10.63;;;;;;;7.95;80.49;96395.22;6176925;23;20437;-64
2022/01/03 10:40:29;;;;;;;13.95;11.68;;;;;;;8.31;81.85;96388.31;6177693;23;20046;-64
2022/01/03 10:43:13;;;;;;;14.40;12.25;;;;;;;8.51;80.65;96378.19;6177833;23;20042;-64
2022/01/03 10:45:40;;;;;;;15.00;11.02;;;;;;;8.77;78.94;96377.19;6176901;23;20005;-64
2022/01/03 10:48:27;;;;;;;23.23;12.05;;;;;;;8.84;78.82;96370.53;6177214;23;20023;-65
2022/01/03 10:50:55;;;;;;;13.00;11.18;;;;;;;8.89;78.77;96366.63;6176248;23;20005;-63
2022/01/03 10:53:41;;;;;;;15.40;9.45;;;;;;;8.94;77.42;96347.91;6177788;23;20009;-63
2022/01/03 10:56:29;;;;;;;10.98;9.80;;;;;;;9.00;78.13;96343.97;6176888;23;20001;-63
2022/01/03 10:59:02;;;;;;;12.38;9.93;;;;;;;9.01;76.87;96343.84;6177450;23;20009;-62
2022/01/03 11:01:30;;;;;;;9.15;8.05;;;;;;;9.10;76.40;96344.13;6178067;23;20001;-65
2022/01/03 11:03:59;;;;;;;9.30;8.40;;;;;;;8.90;74.24;96335.94;6177561;23;20486;-63
2022/01/03 11:10:43;;;;;;;15.93;10.15;;;;;;;8.57;74.96;96330.50;6176421;23;20108;-62
2022/01/03 11:11:58;;;;;;;13.38;10.27;;;;;;;8.15;78.22;96298.56;6177962;23;19923;-62
2022/01/03 11:14:42;;;;;;;12.98;10.48;;;;;;;8.18;78.06;96287.84;6178493;23;20020;-63
2022/01/03 11:17:27;;;;;;;14.18;10.15;;;;;;;8.43;78.40;96292.13;6178201;23;20024;-64
2022/01/03 11:19:55;;;;;;;13.60;11.38;;;;;;;8.78;77.83;96293.09;6178025;23;20009;-64
2022/01/03 11:22:49;;;;;;;11.52;10.35;;;;;;;9.17;76.63;96293.63;6179298;23;20506;-64
2022/01/03 11:25:28;;;;;;;13.55;11.50;;;;;;;9.69;74.67;96292.25;6175894;23;20012;-64
2022/01/03 11:27:53;;;;;;;13.52;11.02;;;;;;;9.75;75.15;96290.00;6178904;23;20147;-65
2022/01/03 11:30:20;;;;;;;10.82;9.73;;;;;;;10.06;71.84;96278.81;6152759;23;20595;-65
2022/01/03 11:32:48;;;;;;;10.07;8.98;;;;;;;10.13;71.62;96271.25;6177988;23;20009;-67